KPSK/PSK METAR and TAF weather

Enter ICAO airport designator
Station Type Date Time Source
KPSK METAR 2022/07/01 00:55 UTC NOAA

KPSK 010055Z AUTO 21006KT 10SM CLR 25/19 A3024 RMK AO2 T02500187


Station Type Date Time Source
KPSK Decoded METAR 2022/07/01 00:55 UTC NOAA

Dublin / New River Valley, VA, United States (KPSK) 37-08N 080-41W
Jun 30, 2022 - 08:55 PM EDT / 2022.07.01 0055 UTC
Wind: from the SSW (210 degrees) at 7 MPH (6 KT):0
Visibility: 10 mile(s):0
Sky conditions: clear
Temperature: 77.0 F (25.0 C)
Dew Point: 65.7 F (18.7 C)
Relative Humidity: 68%
Pressure (altimeter): 30.24 in. Hg (1024 hPa)
ob: KPSK 010055Z AUTO 21006KT 10SM CLR 25/19 A3024 RMK AO2 T02500187
cycle: 1

Station Type Date Time Source
KPSK TAF UTC NOAA

Error!

Example: see airport list